Time;durP1;ratioP1;P1;durP2;ratioP2;P2;SDS_P1;SDS_P2;PMS_P1;PMS_P2;Temp;Humidity;BMP_temperature;BMP_pressure;BME280_temperature;BME280_humidity;BME280_pressure;Samples;Min_cycle;Max_cycle;Signal;HPM_P1;HPM_P2
2021/07/03 00:01:56;;;;;;;6.70;6.10;;;16.90;91.00;;;;;;5044560;28;20637;-64
2021/07/03 00:04:22;;;;;;;6.27;5.77;;;17.00;90.40;;;;;;5049197;28;20474;-65
2021/07/03 00:06:48;;;;;;;6.67;5.97;;;16.90;90.40;;;;;;5048246;28;20431;-64
2021/07/03 00:09:14;;;;;;;6.77;6.23;;;16.90;90.50;;;;;;5042027;28;20441;-65
2021/07/03 00:11:40;;;;;;;6.30;5.60;;;16.90;90.40;;;;;;5048356;28;20270;-64
2021/07/03 00:14:06;;;;;;;6.77;6.17;;;16.90;91.60;;;;;;5048910;28;20420;-65
2021/07/03 00:16:32;;;;;;;6.40;5.90;;;16.80;93.80;;;;;;5048830;28;20994;-65
2021/07/03 00:18:58;;;;;;;6.63;6.03;;;16.80;93.40;;;;;;5048113;28;21038;-64
2021/07/03 00:21:24;;;;;;;6.20;5.60;;;16.80;92.80;;;;;;5049067;28;20484;-69
2021/07/03 00:23:49;;;;;;;7.37;5.60;;;16.80;92.40;;;;;;5048549;28;20420;-65
2021/07/03 00:26:15;;;;;;;5.80;5.20;;;16.70;91.80;;;;;;5048951;28;20869;-64
2021/07/03 00:28:40;;;;;;;7.50;6.23;;;16.80;90.50;;;;;;5046401;28;20188;-64
2021/07/03 00:31:06;;;;;;;6.70;6.20;;;16.80;91.00;;;;;;5048884;28;20198;-63
2021/07/03 00:33:31;;;;;;;6.60;6.00;;;16.70;93.00;;;;;;5047770;28;20216;-65
2021/07/03 00:35:57;;;;;;;6.90;6.30;;;16.70;93.80;;;;;;5048691;28;20186;-64
2021/07/03 00:38:22;;;;;;;6.23;5.73;;;16.70;93.00;;;;;;5048456;28;20166;-65
2021/07/03 00:40:48;;;;;;;6.10;5.60;;;16.70;92.10;;;;;;5049073;28;20173;-64
2021/07/03 00:43:14;;;;;;;6.83;6.23;;;16.70;91.90;;;;;;5048861;28;20649;-65
2021/07/03 00:45:40;;;;;;;6.23;5.70;;;16.60;93.60;;;;;;5048935;28;20684;-65
2021/07/03 00:48:06;;;;;;;6.27;5.77;;;16.60;95.80;;;;;;5046991;28;20720;-64
2021/07/03 00:50:32;;;;;;;6.20;5.70;;;16.50;97.60;;;;;;5048958;28;20883;-63
2021/07/03 00:52:58;;;;;;;5.93;5.43;;;16.40;99.90;;;;;;5031586;28;20467;-64
2021/07/03 00:55:26;;;;;;;7.03;6.30;;;16.40;99.90;;;;;;5028980;28;20412;-64
2021/07/03 00:57:52;;;;;;;6.60;6.00;;;16.40;99.90;;;;;;5044189;28;20470;-64
2021/07/03 01:00:19;;;;;;;6.77;6.17;;;16.50;99.90;;;;;;5051373;28;20485;-66
2021/07/03 01:02:45;;;;;;;6.50;6.00;;;16.50;99.90;;;;;;5040095;28;20454;-65
2021/07/03 01:05:11;;;;;;;6.03;5.53;;;16.60;99.90;;;;;;5038596;28;21257;-67
2021/07/03 01:07:37;;;;;;;5.75;5.25;;;16.50;99.90;;;;;;5039773;28;20186;-64
2021/07/03 01:10:17;;;;;;;10.30;5.60;;;16.60;99.90;;;;;;5047332;28;20227;-65
2021/07/03 01:12:42;;;;;;;5.90;5.50;;;16.70;99.90;;;;;;5054122;28;20472;-64
2021/07/03 01:15:09;;;;;;;6.27;5.57;;;16.70;99.90;;;;;;5029056;28;20486;-64
2021/07/03 01:17:34;;;;;;;6.10;5.60;;;16.70;99.70;;;;;;5052675;28;20554;-64
2021/07/03 01:20:00;;;;;;;5.57;5.07;;;16.80;95.00;;;;;;5032405;28;20421;-64
2021/07/03 01:22:25;;;;;;;6.50;6.00;;;16.80;93.00;;;;;;5044000;28;20251;-64
2021/07/03 01:24:51;;;;;;;6.13;5.63;;;16.90;82.00;;;;;;5051726;28;20210;-64
2021/07/03 01:27:16;;;;;;;6.13;5.63;;;16.90;78.80;;;;;;5051196;28;20680;-64
2021/07/03 01:29:42;;;;;;;5.97;5.50;;;16.90;78.10;;;;;;5051836;28;20540;-65
2021/07/03 01:32:08;;;;;;;6.00;5.50;;;16.90;73.50;;;;;;5051669;28;20224;-65
2021/07/03 01:34:34;;;;;;;6.00;5.50;;;16.90;72.80;;;;;;5048787;28;20420;-64
2021/07/03 01:37:00;;;;;;;6.00;5.50;;;16.90;76.20;;;;;;5043991;28;20516;-64
2021/07/03 01:39:27;;;;;;;5.00;4.60;;;16.90;77.40;;;;;;5034796;28;20182;-66
2021/07/03 01:41:53;;;;;;;7.80;5.63;;;16.90;79.50;;;;;;5035057;28;20926;-66
2021/07/03 01:44:24;;;;;;;5.77;5.17;;;16.90;81.90;;;;;;5043246;28;20412;-65
2021/07/03 01:46:57;;;;;;;6.10;5.60;;;16.90;81.20;;;;;;5037993;28;20413;-65
2021/07/03 01:49:24;;;;;;;6.50;5.90;;;16.90;80.10;;;;;;5050328;28;20432;-65
2021/07/03 01:51:50;;;;;;;6.10;5.60;;;16.90;76.50;;;;;;5051348;28;20505;-64
2021/07/03 01:54:16;;;;;;;5.57;5.07;;;16.90;73.20;;;;;;5044498;28;20233;-64
2021/07/03 01:56:44;;;;;;;6.03;5.40;;;17.00;72.10;;;;;;5031301;28;20798;-64
2021/07/03 01:59:11;;;;;;;6.27;5.77;;;17.00;73.50;;;;;;5045718;28;20189;-65
2021/07/03 02:01:36;;;;;;;5.80;5.30;;;17.00;74.70;;;;;;5051169;28;20472;-65
2021/07/03 02:04:03;;;;;;;5.90;5.40;;;17.10;78.70;;;;;;5038528;28;20429;-64
2021/07/03 02:06:29;;;;;;;6.37;5.87;;;17.00;84.50;;;;;;5037928;28;20236;-64
2021/07/03 02:08:54;;;;;;;6.20;5.60;;;17.00;89.30;;;;;;5050527;28;20500;-65
2021/07/03 02:11:20;;;;;;;7.43;6.73;;;17.00;88.20;;;;;;5037829;28;20194;-63
2021/07/03 02:13:46;;;;;;;6.10;5.60;;;17.00;88.10;;;;;;5032189;28;20394;-65
2021/07/03 02:16:11;;;;;;;5.83;5.37;;;17.00;85.50;;;;;;5032765;28;20205;-68
2021/07/03 02:18:37;;;;;;;6.47;5.87;;;17.00;88.50;;;;;;5033178;28;20186;-64
2021/07/03 02:21:02;;;;;;;6.40;5.80;;;17.00;84.50;;;;;;5050376;28;20526;-65
2021/07/03 02:23:28;;;;;;;5.93;5.23;;;17.00;79.00;;;;;;5046507;28;20206;-65
2021/07/03 02:25:54;;;;;;;6.60;6.00;;;17.00;78.70;;;;;;5030942;28;20182;-64
2021/07/03 02:28:19;;;;;;;6.57;5.97;;;17.00;78.20;;;;;;5032173;28;20191;-64
2021/07/03 02:30:45;;;;;;;7.30;5.90;;;17.10;80.30;;;;;;5045667;28;20436;-64
2021/07/03 02:33:12;;;;;;;6.80;6.20;;;17.10;70.00;;;;;;5039761;28;20213;-65
2021/07/03 02:35:38;;;;;;;5.90;5.40;;;17.20;68.90;;;;;;5050594;28;20312;-65
2021/07/03 02:38:04;;;;;;;6.50;5.60;;;17.20;72.80;;;;;;5050060;28;20424;-64
2021/07/03 02:40:31;;;;;;;5.77;5.27;;;17.20;70.00;;;;;;5036223;28;20436;-63
2021/07/03 02:42:56;;;;;;;6.10;5.60;;;17.20;66.60;;;;;;5038146;28;20452;-63
2021/07/03 02:45:23;;;;;;;6.60;6.00;;;17.20;62.60;;;;;;5030953;28;20514;-63
2021/07/03 02:47:49;;;;;;;6.57;5.97;;;17.20;58.90;;;;;;5030112;28;20182;-63
2021/07/03 02:50:17;;;;;;;6.40;5.87;;;17.10;64.50;;;;;;5031707;28;20424;-66
2021/07/03 02:52:42;;;;;;;6.45;5.85;;;17.10;62.20;;;;;;5030435;28;20605;-63
2021/07/03 02:55:08;;;;;;;6.90;6.20;;;17.10;59.60;;;;;;5029409;28;20270;-63
2021/07/03 02:57:34;;;;;;;6.87;6.17;;;17.20;51.70;;;;;;5039153;28;20186;-63
2021/07/03 03:00:00;;;;;;;6.55;5.95;;;17.10;48.00;;;;;;5037701;28;20518;-63
2021/07/03 03:02:26;;;;;;;7.27;6.57;;;17.10;52.50;;;;;;5042425;28;20304;-63
2021/07/03 03:04:51;;;;;;;7.10;6.47;;;17.10;51.10;;;;;;5050206;28;20435;-63
2021/07/03 03:07:17;;;;;;;6.77;6.13;;;17.10;48.30;;;;;;5050158;28;20193;-64
2021/07/03 03:09:42;;;;;;;7.03;6.40;;;17.20;46.70;;;;;;5049833;28;20272;-68
2021/07/03 03:12:08;;;;;;;6.90;6.20;;;17.10;47.70;;;;;;5043036;28;20232;-63
2021/07/03 03:14:34;;;;;;;6.77;6.13;;;17.10;48.20;;;;;;5030175;28;20182;-64
2021/07/03 03:16:59;;;;;;;6.57;5.97;;;17.10;50.90;;;;;;5030366;28;20221;-68
2021/07/03 03:19:25;;;;;;;7.13;6.43;;;17.10;49.80;;;;;;5037980;28;20275;-63
2021/07/03 03:21:51;;;;;;;7.30;6.17;;;17.10;52.80;;;;;;5050027;28;20189;-65
2021/07/03 03:24:17;;;;;;;6.93;6.33;;;17.10;47.90;;;;;;5050054;28;20197;-64
2021/07/03 03:26:43;;;;;;;6.20;5.60;;;17.20;43.20;;;;;;5040479;28;21065;-62
2021/07/03 03:29:08;;;;;;;7.47;6.87;;;17.20;42.70;;;;;;5049657;28;20420;-63
2021/07/03 03:31:34;;;;;;;6.70;5.90;;;17.20;45.00;;;;;;5049634;28;20190;-62
2021/07/03 03:33:59;;;;;;;7.37;6.20;;;17.10;48.90;;;;;;5038170;28;20273;-61
2021/07/03 03:36:25;;;;;;;6.70;6.00;;;17.10;50.00;;;;;;5044551;28;20268;-62
2021/07/03 03:38:50;;;;;;;9.83;6.40;;;17.10;49.30;;;;;;5028808;28;20178;-63
2021/07/03 03:41:16;;;;;;;6.40;5.80;;;17.10;50.50;;;;;;5042948;28;20541;-63
2021/07/03 03:43:42;;;;;;;10.00;6.47;;;17.20;47.10;;;;;;5040099;28;20555;-62
2021/07/03 03:46:10;;;;;;;6.87;5.87;;;17.10;53.10;;;;;;5029633;28;20218;-63
2021/07/03 03:48:35;;;;;;;9.43;6.80;;;17.00;58.40;;;;;;5047007;28;20481;-63
2021/07/03 03:51:01;;;;;;;6.37;5.57;;;17.00;62.10;;;;;;5049230;28;20424;-63
2021/07/03 03:53:26;;;;;;;6.27;5.77;;;17.00;68.40;;;;;;5047773;28;20201;-62
2021/07/03 03:55:52;;;;;;;6.70;6.10;;;17.00;68.20;;;;;;5047830;28;20220;-64
2021/07/03 03:58:17;;;;;;;7.10;6.50;;;17.00;67.10;;;;;;5043032;28;20181;-64
2021/07/03 04:00:44;;;;;;;7.90;5.90;;;17.00;68.00;;;;;;5048872;28;20261;-63
2021/07/03 04:03:11;;;;;;;7.10;6.40;;;17.10;64.20;;;;;;5033486;28;20232;-67
2021/07/03 04:05:36;;;;;;;6.40;5.80;;;17.10;62.50;;;;;;5029444;28;20425;-64
2021/07/03 04:08:02;;;;;;;7.07;6.37;;;17.20;42.00;;;;;;5032646;28;20187;-64
2021/07/03 04:10:28;;;;;;;6.50;5.90;;;17.30;38.30;;;;;;5049251;28;20190;-61
2021/07/03 04:12:53;;;;;;;7.07;6.37;;;17.30;38.90;;;;;;5031904;28;20238;-67
2021/07/03 04:15:19;;;;;;;6.87;6.27;;;17.30;36.40;;;;;;5036412;28;20185;-63
2021/07/03 04:17:44;;;;;;;8.00;6.80;;;17.30;31.50;;;;;;5032971;28;20193;-64
2021/07/03 04:20:11;;;;;;;7.30;6.60;;;17.40;26.50;;;;;;5049060;28;20192;-63
2021/07/03 04:22:37;;;;;;;6.73;6.20;;;17.40;25.20;;;;;;5036631;28;20178;-64
2021/07/03 04:25:09;;;;;;;7.83;6.50;;;17.20;30.00;;;;;;5048997;28;20416;-64
2021/07/03 04:27:36;;;;;;;7.82;7.13;;;17.30;35.40;;;;;;5048155;28;20403;-64
2021/07/03 04:30:05;;;;;;;8.03;7.23;;;17.40;29.00;;;;;;5048601;28;20700;-64
2021/07/03 04:32:31;;;;;;;8.47;6.63;;;17.50;23.10;;;;;;5037264;28;20455;-62
2021/07/03 04:34:56;;;;;;;6.93;6.33;;;17.40;25.20;;;;;;5029183;28;21046;-62
2021/07/03 04:37:22;;;;;;;7.17;6.47;;;17.60;18.60;;;;;;5028599;28;20595;-72
2021/07/03 04:39:48;;;;;;;7.80;7.00;;;17.70;12.70;;;;;;5029166;28;20271;-63
2021/07/03 04:42:13;;;;;;;7.90;6.80;;;17.70;6.00;;;;;;5029123;28;20178;-63
2021/07/03 04:44:39;;;;;;;7.67;6.90;;;17.90;1.00;;;;;;5029521;28;20178;-69
2021/07/03 04:47:04;;;;;;;7.50;6.30;;;18.00;1.00;;;;;;5048245;28;20177;-63
2021/07/03 04:49:33;;;;;;;8.10;6.90;;;17.90;4.80;;;;;;5048951;28;20190;-62
2021/07/03 04:52:00;;;;;;;6.97;6.37;;;17.80;6.40;;;;;;5048553;28;20284;-63
2021/07/03 04:54:26;;;;;;;8.00;7.10;;;17.80;9.90;;;;;;5048272;28;20641;-67
2021/07/03 04:57:06;;;;;;;7.80;7.00;;;17.80;9.60;;;;;;5052738;28;20532;-61
2021/07/03 04:59:32;;;;;;;7.53;6.83;;;17.70;11.20;;;;;;5035787;28;20240;-63
2021/07/03 05:01:58;;;;;;;7.27;6.50;;;17.80;7.30;;;;;;5047966;28;20511;-63
2021/07/03 05:04:23;;;;;;;8.73;6.47;;;17.80;12.50;;;;;;5047548;28;20463;-63
2021/07/03 05:06:49;;;;;;;8.07;7.27;;;17.90;6.30;;;;;;5047377;28;20186;-63
2021/07/03 05:09:14;;;;;;;7.87;7.10;;;17.80;13.60;;;;;;5059944;28;20859;-63
2021/07/03 05:11:40;;;;;;;7.77;7.07;;;17.80;12.60;;;;;;5061942;28;20219;-63
2021/07/03 05:14:05;;;;;;;7.57;6.87;;;17.90;1.70;;;;;;5034918;28;20191;-63
2021/07/03 05:16:31;;;;;;;7.83;7.10;;;18.10;1.00;;;;;;5035120;28;20191;-62
2021/07/03 05:18:56;;;;;;;8.63;7.60;;;18.20;1.00;;;;;;5047420;28;20322;-62
2021/07/03 05:21:22;;;;;;;8.03;7.20;;;18.20;1.00;;;;;;5067105;28;20215;-63
2021/07/03 05:23:47;;;;;;;7.40;6.70;;;18.20;1.00;;;;;;5035993;28;20212;-63
2021/07/03 05:26:13;;;;;;;8.83;7.23;;;18.20;1.00;;;;;;5051807;28;20181;-62
2021/07/03 05:28:39;;;;;;;7.73;7.03;;;18.30;1.00;;;;;;5051286;28;20184;-63
2021/07/03 05:31:04;;;;;;;8.03;7.07;;;18.40;1.00;;;;;;5034880;28;20353;-69
2021/07/03 05:33:30;;;;;;;8.53;7.60;;;18.50;1.00;;;;;;5035331;28;20688;-63
2021/07/03 05:35:55;;;;;;;10.43;7.70;;;18.50;1.00;;;;;;5038668;28;20182;-64
2021/07/03 05:38:21;;;;;;;8.50;6.90;;;18.60;1.00;;;;;;5051961;28;20252;-64
2021/07/03 05:40:46;;;;;;;9.40;7.70;;;18.70;1.00;;;;;;5042894;28;20182;-63
2021/07/03 05:43:12;;;;;;;7.87;7.07;;;18.70;1.00;;;;;;5040408;28;20186;-64
2021/07/03 05:45:38;;;;;;;10.47;7.53;;;18.60;1.00;;;;;;5032003;28;20191;-63
2021/07/03 05:48:04;;;;;;;10.03;7.63;;;18.70;1.00;;;;;;5042762;28;20683;-63
2021/07/03 05:50:30;;;;;;;7.40;6.70;;;18.80;1.00;;;;;;5050741;28;20186;-63
2021/07/03 05:52:56;;;;;;;8.40;7.50;;;18.90;1.00;;;;;;5051725;28;20459;-63
2021/07/03 05:55:22;;;;;;;8.50;7.60;;;18.90;1.00;;;;;;5050380;28;20227;-63
2021/07/03 05:57:47;;;;;;;7.87;7.17;;;18.80;1.00;;;;;;5049167;28;20190;-64
2021/07/03 06:00:14;;;;;;;7.50;6.90;;;18.80;1.00;;;;;;5047874;28;20461;-63
2021/07/03 06:02:40;;;;;;;6.95;6.35;;;18.70;1.00;;;;;;5049856;28;20195;-63
2021/07/03 06:05:07;;;;;;;7.47;6.77;;;18.80;1.00;;;;;;5049638;28;20177;-63
2021/07/03 06:07:33;;;;;;;7.23;6.50;;;18.80;1.00;;;;;;5046030;28;20459;-64
2021/07/03 06:09:59;;;;;;;7.97;7.17;;;18.80;1.00;;;;;;5049362;28;20486;-63
2021/07/03 06:12:24;;;;;;;8.37;7.10;;;18.80;1.00;;;;;;5049236;28;20467;-64
2021/07/03 06:14:50;;;;;;;7.97;7.27;;;18.60;1.00;;;;;;5047587;28;21105;-63
2021/07/03 06:17:16;;;;;;;8.70;7.23;;;18.50;1.00;;;;;;5031364;28;20650;-64
2021/07/03 06:19:43;;;;;;;7.73;7.03;;;18.50;1.00;;;;;;5047235;28;20264;-63
2021/07/03 06:22:12;;;;;;;9.10;7.18;;;18.50;1.00;;;;;;5051058;28;20728;-63
2021/07/03 06:24:38;;;;;;;7.17;6.57;;;18.50;1.00;;;;;;5051003;28;20197;-63
2021/07/03 06:27:03;;;;;;;7.20;6.50;;;18.70;1.00;;;;;;5049878;28;20440;-63
2021/07/03 06:29:29;;;;;;;6.80;6.20;;;18.80;1.00;;;;;;5032083;28;20432;-64
2021/07/03 06:31:55;;;;;;;7.27;6.57;;;18.90;1.00;;;;;;5036919;28;20203;-63
2021/07/03 06:34:20;;;;;;;6.83;6.23;;;19.00;1.00;;;;;;5050053;28;20227;-63
2021/07/03 06:36:46;;;;;;;8.13;7.37;;;19.20;1.00;;;;;;5041451;28;20184;-63
2021/07/03 06:39:11;;;;;;;8.13;7.50;;;19.30;1.00;;;;;;5037908;28;20187;-64
2021/07/03 06:41:37;;;;;;;7.00;6.40;;;19.40;1.00;;;;;;5048770;28;20183;-64
2021/07/03 06:44:02;;;;;;;7.20;6.60;;;19.50;1.00;;;;;;5049348;28;20178;-64
2021/07/03 06:46:29;;;;;;;8.00;7.20;;;19.60;1.00;;;;;;5052966;28;20192;-64
2021/07/03 06:48:55;;;;;;;7.60;7.00;;;19.70;1.00;;;;;;5057810;28;20260;-64
2021/07/03 06:51:20;;;;;;;8.33;7.63;;;19.60;1.00;;;;;;5051865;28;20527;-65
2021/07/03 06:53:46;;;;;;;8.13;7.33;;;19.70;1.00;;;;;;5045052;28;20597;-64
2021/07/03 06:56:12;;;;;;;7.80;7.10;;;19.60;1.00;;;;;;5046397;28;20240;-63
2021/07/03 06:58:38;;;;;;;8.30;6.93;;;19.50;1.00;;;;;;5047791;28;20191;-64
2021/07/03 07:01:03;;;;;;;9.90;7.70;;;19.60;1.00;;;;;;5043249;28;20298;-65
2021/07/03 07:03:29;;;;;;;7.90;7.20;;;19.50;1.00;;;;;;5049492;28;20594;-63
2021/07/03 07:05:54;;;;;;;8.07;7.37;;;19.40;1.00;;;;;;5046822;28;20182;-64
2021/07/03 07:08:20;;;;;;;8.60;7.10;;;19.40;1.00;;;;;;5041292;28;20172;-65
2021/07/03 07:10:46;;;;;;;9.03;8.23;;;19.30;1.00;;;;;;5039404;28;20607;-64
2021/07/03 07:13:12;;;;;;;8.17;7.30;;;19.30;1.00;;;;;;5050315;28;20209;-63
2021/07/03 07:15:37;;;;;;;8.30;7.60;;;19.40;1.00;;;;;;5050945;28;20183;-64
2021/07/03 07:18:03;;;;;;;8.30;7.60;;;19.30;1.00;;;;;;5050716;28;20419;-64
2021/07/03 07:20:29;;;;;;;8.43;7.60;;;19.50;1.00;;;;;;5033236;28;20575;-64
2021/07/03 07:22:54;;;;;;;9.40;8.00;;;19.60;1.00;;;;;;5048546;28;20184;-63
2021/07/03 07:25:20;;;;;;;9.40;8.40;;;19.60;1.00;;;;;;5040942;28;20186;-64
2021/07/03 07:27:45;;;;;;;9.00;8.20;;;19.60;1.00;;;;;;5046927;28;20210;-64
2021/07/03 07:30:13;;;;;;;8.90;8.00;;;19.60;1.00;;;;;;5051657;28;20200;-63
2021/07/03 07:32:38;;;;;;;9.57;8.67;;;19.60;1.00;;;;;;5050571;28;20198;-63
2021/07/03 07:35:04;;;;;;;8.90;8.07;;;19.70;1.00;;;;;;5051621;28;20420;-63
2021/07/03 07:37:30;;;;;;;9.73;8.73;;;19.80;1.00;;;;;;5050270;28;20179;-63
2021/07/03 07:39:56;;;;;;;8.57;7.70;;;19.80;1.00;;;;;;5050284;28;20408;-68
2021/07/03 07:42:22;;;;;;;8.90;8.10;;;19.80;1.00;;;;;;5051427;28;20710;-64
2021/07/03 07:44:48;;;;;;;8.83;8.03;;;19.80;1.00;;;;;;5049687;28;20182;-62
2021/07/03 07:47:13;;;;;;;10.27;9.20;;;19.90;1.00;;;;;;5049433;28;20421;-62
2021/07/03 07:49:39;;;;;;;8.70;7.83;;;20.00;1.00;;;;;;5042895;28;20262;-63
2021/07/03 07:52:04;;;;;;;8.23;7.40;;;20.10;1.00;;;;;;5029529;28;20186;-63
2021/07/03 07:54:30;;;;;;;9.20;8.40;;;20.20;1.00;;;;;;5029291;28;20235;-64
2021/07/03 07:56:59;;;;;;;8.80;7.93;;;20.30;1.00;;;;;;5030118;28;20249;-64
2021/07/03 07:59:25;;;;;;;8.90;8.10;;;20.40;1.00;;;;;;5051023;28;20628;-63
2021/07/03 08:01:50;;;;;;;8.40;7.60;;;20.50;1.00;;;;;;5050843;28;20467;-62
2021/07/03 08:04:16;;;;;;;8.20;7.60;;;20.50;1.00;;;;;;5054541;28;20422;-63
2021/07/03 08:06:41;;;;;;;7.40;6.80;;;20.50;86.30;;;;;;5044922;28;20235;-64
2021/07/03 08:09:07;;;;;;;8.40;7.60;;;20.60;99.90;;;;;;5047361;28;20245;-64
2021/07/03 08:11:32;;;;;;;7.50;6.90;;;20.70;99.90;;;;;;5043173;28;20185;-65
2021/07/03 08:13:58;;;;;;;8.63;7.90;;;20.80;27.00;;;;;;5045331;28;20193;-65
2021/07/03 08:16:24;;;;;;;8.23;7.53;;;21.00;1.00;;;;;;5047758;28;20173;-65
2021/07/03 08:18:49;;;;;;;8.27;7.57;;;21.10;1.00;;;;;;5045018;28;20281;-65
2021/07/03 08:21:16;;;;;;;8.93;8.17;;;21.10;1.00;;;;;;5046911;28;20188;-65
2021/07/03 08:23:42;;;;;;;7.90;7.30;;;21.30;55.10;;;;;;5037678;28;20187;-65
2021/07/03 08:26:08;;;;;;;8.30;7.50;;;21.40;99.90;;;;;;5039185;28;20739;-65
2021/07/03 08:28:34;;;;;;;7.90;7.30;;;21.50;1.00;;;;;;5047073;28;20773;-65
2021/07/03 08:30:59;;;;;;;9.07;8.33;;;21.70;99.90;;;;;;5048147;28;20782;-63
2021/07/03 08:33:25;;;;;;;8.43;7.73;;;21.60;99.90;;;;;;5046616;28;20559;-64
2021/07/03 08:35:50;;;;;;;8.90;8.20;;;21.60;99.90;;;;;;5034352;28;20174;-63
2021/07/03 08:38:16;;;;;;;8.93;8.13;;;21.60;1.00;;;;;;5052270;28;20239;-64
2021/07/03 08:40:42;;;;;;;8.53;7.93;;;21.50;99.90;;;;;;5051752;28;20637;-64
2021/07/03 08:43:08;;;;;;;9.13;8.30;;;21.70;15.40;;;;;;5053176;28;20420;-64
2021/07/03 08:45:34;;;;;;;7.87;7.27;;;21.80;67.60;;;;;;5052322;28;20190;-68
2021/07/03 08:47:59;;;;;;;8.03;7.40;;;21.90;1.00;;;;;;5053149;28;20186;-65
2021/07/03 08:50:25;;;;;;;8.77;7.87;;;22.10;1.00;;;;;;5047122;28;20482;-64
2021/07/03 08:52:51;;;;;;;7.67;7.13;;;22.50;1.00;;;;;;5032689;28;20199;-64
2021/07/03 08:55:21;;;;;;;8.20;7.60;;;22.60;1.00;;;;;;5033629;28;20220;-65
2021/07/03 08:57:55;;;;;;;8.13;7.53;;;22.90;99.90;;;;;;5053460;28;20189;-65
2021/07/03 09:00:32;;;;;;;8.13;7.53;;;23.10;39.60;;;;;;5052332;28;20946;-64
2021/07/03 09:02:58;;;;;;;8.30;7.80;;;23.40;99.90;;;;;;5041541;28;20432;-65
2021/07/03 09:05:30;;;;;;;8.40;7.70;;;23.60;1.00;;;;;;5033654;28;20421;-65
2021/07/03 09:08:01;;;;;;;8.23;7.63;;;23.90;1.00;;;;;;5047579;28;20431;-65
2021/07/03 09:10:28;;;;;;;7.53;7.03;;;24.10;1.00;;;;;;5049192;28;20459;-65
2021/07/03 09:12:57;;;;;;;7.83;7.27;;;24.20;1.00;;;;;;5043271;28;20550;-65
2021/07/03 09:15:24;;;;;;;8.33;7.57;;;24.60;1.00;;;;;;5048570;28;20485;-65
2021/07/03 09:17:57;;;;;;;7.97;7.47;;;24.90;1.00;;;;;;5052170;28;20414;-65
2021/07/03 09:20:27;;;;;;;8.07;7.47;;;25.00;1.00;;;;;;5044297;28;20511;-64
2021/07/03 09:23:07;;;;;;;9.37;8.63;;;24.90;99.90;;;;;;5045546;28;20548;-65
2021/07/03 09:25:33;;;;;;;8.60;7.90;;;24.60;99.90;;;;;;5032402;28;20428;-65
2021/07/03 09:28:05;;;;;;;8.33;7.73;;;24.40;99.90;;;;;;5047079;28;20461;-65
2021/07/03 09:30:31;;;;;;;8.73;8.13;;;24.30;99.90;;;;;;5039488;28;20503;-64
2021/07/03 09:32:58;;;;;;;7.80;7.30;;;24.30;99.90;;;;;;5049575;28;20464;-65
2021/07/03 09:35:23;;;;;;;8.00;7.40;;;24.90;99.90;;;;;;5052246;28;20467;-64
2021/07/03 09:37:49;;;;;;;8.10;7.60;;;25.30;99.90;;;;;;5050710;28;20844;-65
2021/07/03 09:40:15;;;;;;;8.30;7.60;;;25.30;99.90;;;;;;5045173;28;20213;-64
2021/07/03 09:42:42;;;;;;;8.53;7.83;;;25.00;99.90;;;;;;5030735;28;20210;-64
2021/07/03 09:45:09;;;;;;;8.17;7.57;;;25.00;99.90;;;;;;5043378;28;20432;-64
2021/07/03 09:47:35;;;;;;;8.53;8.00;;;25.60;99.90;;;;;;5051825;28;20455;-66
2021/07/03 09:50:04;;;;;;;8.63;8.03;;;26.40;99.90;;;;;;5033716;28;20472;-68
2021/07/03 09:52:30;;;;;;;7.80;7.30;;;27.30;99.90;;;;;;5039136;28;20501;-64
2021/07/03 09:54:56;;;;;;;7.90;7.40;;;28.40;99.90;;;;;;5051720;28;20562;-65
2021/07/03 09:57:24;;;;;;;8.13;7.63;;;29.30;99.90;;;;;;5050731;28;20173;-68
2021/07/03 09:59:50;;;;;;;8.53;8.03;;;28.90;99.90;;;;;;5051278;28;20425;-65
2021/07/03 10:02:17;;;;;;;7.83;7.33;;;28.20;99.90;;;;;;5050572;28;20490;-67
2021/07/03 10:04:42;;;;;;;8.67;8.07;;;28.00;99.90;;;;;;5044729;28;20531;-64
2021/07/03 10:07:18;;;;;;;9.17;8.57;;;28.60;99.90;;;;;;5051204;28;20515;-64
2021/07/03 10:09:54;;;;;;;8.93;8.23;;;29.20;99.90;;;;;;5050555;28;20211;-65
2021/07/03 10:12:26;;;;;;;8.23;7.73;;;29.90;99.90;;;;;;5037946;28;20465;-65
2021/07/03 10:14:52;;;;;;;7.90;7.40;;;30.50;99.90;;;;;;5050618;28;20437;-62
2021/07/03 10:17:27;;;;;;;8.93;8.43;;;30.50;99.90;;;;;;5033421;28;20424;-64
2021/07/03 10:19:53;;;;;;;7.93;7.27;;;29.60;99.90;;;;;;5035471;28;20264;-64
2021/07/03 10:22:30;;;;;;;8.73;8.23;;;28.80;99.90;;;;;;5047546;28;20425;-64
2021/07/03 10:25:12;;;;;;;8.40;7.90;;;28.40;99.90;;;;;;5041803;28;20426;-64
2021/07/03 10:27:50;;;;;;;8.68;8.05;;;28.10;99.90;;;;;;5031264;28;20897;-65
2021/07/03 10:30:32;;;;;;;9.00;8.40;;;28.90;99.90;;;;;;5031195;28;20286;-64
2021/07/03 10:33:04;;;;;;;7.97;7.47;;;29.50;99.90;;;;;;5040218;28;20541;-65
2021/07/03 10:35:44;;;;;;;8.07;7.57;;;30.30;99.90;;;;;;5050195;28;20268;-65
2021/07/03 10:38:28;;;;;;;7.78;7.28;;;31.20;99.90;;;;;;5049501;28;20420;-66
2021/07/03 10:41:14;;;;;;;7.93;7.33;;;31.50;99.90;;;;;;5050749;28;20217;-66
2021/07/03 10:43:43;;;;;;;8.10;7.60;;;32.20;99.90;;;;;;5038555;28;20769;-65
2021/07/03 10:46:08;;;;;;;7.90;7.40;;;32.50;99.90;;;;;;5035591;28;20460;-64
2021/07/03 10:48:34;;;;;;;7.83;7.33;;;32.20;99.90;;;;;;5035434;28;20479;-65
2021/07/03 10:51:12;;;;;;;8.03;7.53;;;31.30;99.90;;;;;;5046778;28;20175;-65
2021/07/03 10:53:37;;;;;;;7.90;7.40;;;31.00;99.90;;;;;;5048135;28;20202;-65
2021/07/03 10:56:15;;;;;;;7.73;7.23;;;31.70;99.90;;;;;;5037770;28;20420;-64
2021/07/03 10:58:42;;;;;;;8.30;7.80;;;32.70;99.90;;;;;;5044825;28;20546;-64
2021/07/03 11:01:15;;;;;;;8.03;7.37;;;33.50;99.90;;;;;;5048026;28;20471;-65
2021/07/03 11:03:44;;;;;;;8.30;7.80;;;34.20;99.90;;;;;;5036543;28;20420;-65
2021/07/03 11:06:13;;;;;;;8.10;7.60;;;34.70;99.90;;;;;;5035953;28;20416;-65
2021/07/03 11:08:40;;;;;;;8.00;7.50;;;34.90;99.90;;;;;;5049933;28;20638;-65
2021/07/03 11:11:08;;;;;;;8.50;7.90;;;34.50;99.90;;;;;;5047556;28;20467;-64
2021/07/03 11:13:34;;;;;;;7.80;7.30;;;33.30;99.90;;;;;;5042542;28;20994;-64
2021/07/03 11:16:03;;;;;;;8.87;8.17;;;33.00;99.90;;;;;;5038315;28;20455;-65
2021/07/03 11:18:30;;;;;;;8.50;7.77;;;32.20;99.90;;;;;;5041575;28;20543;-65
2021/07/03 11:21:01;;;;;;;8.23;7.73;;;31.50;99.90;;;;;;5038340;28;20507;-64
2021/07/03 11:23:26;;;;;;;8.80;8.30;;;31.20;99.90;;;;;;5040530;28;20404;-64
2021/07/03 11:25:52;;;;;;;8.00;7.50;;;30.90;99.90;;;;;;5036833;28;21217;-66
2021/07/03 11:28:20;;;;;;;8.90;8.20;;;30.80;99.90;;;;;;5038474;28;20178;-65
2021/07/03 11:30:53;;;;;;;9.00;8.50;;;30.60;99.90;;;;;;5041937;28;20236;-65
2021/07/03 11:33:19;;;;;;;9.40;8.80;;;30.40;99.90;;;;;;5033905;28;20449;-65
2021/07/03 11:35:50;;;;;;;9.10;8.50;;;30.90;99.90;;;;;;5040534;28;20774;-64
2021/07/03 11:38:21;;;;;;;9.17;8.57;;;31.00;99.90;;;;;;5039306;28;20510;-65
2021/07/03 11:40:49;;;;;;;8.70;8.20;;;30.40;99.90;;;;;;5036567;28;20482;-66
2021/07/03 11:43:15;;;;;;;8.85;8.25;;;30.20;99.90;;;;;;5036014;28;20413;-65
2021/07/03 11:45:42;;;;;;;8.33;7.83;;;30.60;99.90;;;;;;5043513;28;20617;-65
2021/07/03 11:48:16;;;;;;;8.73;8.07;;;31.40;99.90;;;;;;5032328;28;20186;-64
2021/07/03 11:50:45;;;;;;;9.57;8.97;;;32.20;99.90;;;;;;5034453;28;20485;-65
2021/07/03 11:53:16;;;;;;;8.57;8.07;;;32.40;99.90;;;;;;5036859;28;21009;-66
2021/07/03 11:55:47;;;;;;;8.25;7.75;;;33.00;99.90;;;;;;5034038;28;20508;-66
2021/07/03 11:58:25;;;;;;;8.17;7.67;;;34.10;99.90;;;;;;5044756;28;20202;-66
2021/07/03 12:00:54;;;;;;;8.45;7.95;;;34.70;99.90;;;;;;5038057;28;20472;-65
2021/07/03 12:03:26;;;;;;;7.43;7.03;;;35.40;99.90;;;;;;5035540;28;20296;-65
2021/07/03 12:05:54;;;;;;;8.07;7.43;;;35.40;99.90;;;;;;5046576;28;20849;-65
2021/07/03 12:08:20;;;;;;;8.13;7.60;;;35.40;99.90;;;;;;5048348;28;20421;-65
2021/07/03 12:10:51;;;;;;;8.27;7.77;;;35.40;99.90;;;;;;5044993;28;20764;-66
2021/07/03 12:13:47;;;;;;;7.87;7.47;;;35.80;99.90;;;;;;5038635;28;20977;-66
2021/07/03 12:16:14;;;;;;;7.97;7.47;;;35.90;99.90;;;;;;5028999;28;20394;-66
2021/07/03 12:18:45;;;;;;;7.90;7.40;;;36.30;99.90;;;;;;5028750;28;20769;-67
2021/07/03 12:21:31;;;;;;;8.40;7.90;;;35.80;99.90;;;;;;5044761;28;20483;-67
2021/07/03 12:23:58;;;;;;;7.87;7.37;;;34.50;99.90;;;;;;5028780;28;20429;-63
2021/07/03 12:26:24;;;;;;;8.37;7.87;;;33.80;99.90;;;;;;5034921;28;20421;-66
2021/07/03 12:28:56;;;;;;;8.43;7.93;;;33.70;99.90;;;;;;5047177;28;20447;-66
2021/07/03 12:31:34;;;;;;;7.73;7.33;;;33.50;99.90;;;;;;5037513;28;20425;-65
2021/07/03 12:34:12;;;;;;;7.90;7.43;;;34.10;99.90;;;;;;5031850;28;20536;-65
2021/07/03 12:36:42;;;;;;;6.77;6.40;;;34.60;99.90;;;;;;5031062;28;20534;-66
2021/07/03 12:39:09;;;;;;;7.23;6.83;;;35.00;99.90;;;;;;5031095;28;20409;-66
2021/07/03 12:41:36;;;;;;;7.47;6.97;;;34.60;99.90;;;;;;5034047;28;21237;-67
2021/07/03 12:44:02;;;;;;;7.87;7.47;;;34.30;99.90;;;;;;5029982;28;20465;-67
2021/07/03 12:46:32;;;;;;;7.47;7.07;;;33.90;99.90;;;;;;5035704;28;20423;-66
2021/07/03 12:48:59;;;;;;;8.37;7.87;;;33.60;99.90;;;;;;5034379;28;20536;-66
2021/07/03 12:51:35;;;;;;;8.50;8.00;;;33.60;99.90;;;;;;5037174;28;21034;-66